createdAt,value
2022-12-18T00:00:08.137Z,63.72
2022-12-18T00:02:36.610Z,73.60
2022-12-18T00:05:05.698Z,69.45
2022-12-18T00:07:36.216Z,56.35
2022-12-18T00:10:05.422Z,57.22
2022-12-18T00:12:34.828Z,49.55
2022-12-18T00:15:04.903Z,98.68
2022-12-18T00:17:33.430Z,210.05
2022-12-18T00:20:01.922Z,54.80
2022-12-18T00:22:30.310Z,44.95
2022-12-18T00:24:58.748Z,176.30
2022-12-18T00:27:27.102Z,138.10
2022-12-18T00:29:55.489Z,80.00
2022-12-18T00:32:23.914Z,53.10
2022-12-18T00:34:52.332Z,80.82
2022-12-18T00:37:20.715Z,227.80
2022-12-18T00:39:50.267Z,139.00
2022-12-18T00:42:37.176Z,77.38
2022-12-18T00:45:12.109Z,266.05
2022-12-18T00:47:41.447Z,432.25
2022-12-18T00:50:10.751Z,208.93
2022-12-18T00:52:39.180Z,212.38
2022-12-18T00:55:08.039Z,249.20
2022-12-18T00:57:36.662Z,110.20
2022-12-18T01:00:07.236Z,106.90
2022-12-18T01:02:36.041Z,58.20
2022-12-18T01:05:05.464Z,37.22
2022-12-18T01:07:33.886Z,55.90
2022-12-18T01:10:02.309Z,49.88
2022-12-18T01:12:30.708Z,43.83
2022-12-18T01:14:59.256Z,42.80
2022-12-18T01:17:27.763Z,53.97
2022-12-18T01:19:56.182Z,47.95
2022-12-18T01:22:24.745Z,38.00
2022-12-18T01:24:53.150Z,69.32
2022-12-18T01:27:21.605Z,49.20
2022-12-18T01:29:50.264Z,45.42
2022-12-18T01:32:18.714Z,48.65
2022-12-18T01:34:47.186Z,52.95
2022-12-18T01:37:15.639Z,40.58
2022-12-18T01:39:44.127Z,40.10
2022-12-18T01:42:15.696Z,48.85
2022-12-18T01:45:00.898Z,45.95
2022-12-18T01:47:44.603Z,47.55
2022-12-18T01:50:34.726Z,40.60
2022-12-18T01:53:08.900Z,52.20
2022-12-18T01:55:43.884Z,50.90
2022-12-18T01:58:12.397Z,45.13
2022-12-18T02:00:41.035Z,41.17
2022-12-18T02:03:09.792Z,50.63
2022-12-18T02:05:50.283Z,42.42
2022-12-18T02:08:29.720Z,40.92
2022-12-18T02:11:29.803Z,37.60
2022-12-18T02:13:58.140Z,38.65
2022-12-18T02:16:41.276Z,40.05
2022-12-18T02:19:30.143Z,38.78
2022-12-18T02:22:11.304Z,41.45
2022-12-18T02:25:07.453Z,40.33
2022-12-18T02:27:37.955Z,34.70
2022-12-18T02:30:09.193Z,49.47
2022-12-18T02:32:43.854Z,36.00
2022-12-18T02:35:16.382Z,37.90
2022-12-18T02:37:47.800Z,35.70
2022-12-18T02:40:18.231Z,46.97
2022-12-18T02:42:47.580Z,37.95
2022-12-18T02:45:16.097Z,39.88
2022-12-18T02:47:48.300Z,42.08
2022-12-18T02:53:02.130Z,36.67
2022-12-18T02:55:51.673Z,36.15
2022-12-18T02:58:31.354Z,55.17
2022-12-18T03:01:08.302Z,31.05
2022-12-18T03:03:45.162Z,30.67
2022-12-18T03:06:50.722Z,27.48
2022-12-18T03:09:27.462Z,42.15
2022-12-18T03:12:21.393Z,36.83
2022-12-18T03:15:20.137Z,36.83
2022-12-18T03:18:02.481Z,39.05
2022-12-18T03:20:33.818Z,31.48
2022-12-18T03:23:12.036Z,47.75
2022-12-18T03:25:44.010Z,23.38
2022-12-18T03:28:20.661Z,27.95
2022-12-18T03:30:54.804Z,40.75
2022-12-18T03:33:36.124Z,37.55
2022-12-18T03:36:05.052Z,30.43
2022-12-18T03:38:34.742Z,35.03
2022-12-18T03:41:06.173Z,33.17
2022-12-18T03:44:05.028Z,33.22
2022-12-18T03:46:53.636Z,34.30
2022-12-18T03:49:44.036Z,32.60
2022-12-18T03:52:27.615Z,34.85
2022-12-18T03:54:58.844Z,49.28
2022-12-18T03:57:30.547Z,37.92
2022-12-18T04:00:07.356Z,27.10
2022-12-18T04:02:39.122Z,32.72
2022-12-18T04:05:09.880Z,33.13
2022-12-18T04:07:40.187Z,32.60
2022-12-18T04:10:12.348Z,35.97
2022-12-18T04:12:40.782Z,31.65
2022-12-18T04:15:10.282Z,45.15
2022-12-18T04:17:40.046Z,31.92
2022-12-18T04:20:09.830Z,36.08
2022-12-18T04:22:38.246Z,34.00
2022-12-18T04:25:06.975Z,32.30
2022-12-18T04:27:35.672Z,32.38
2022-12-18T04:30:04.654Z,38.88
2022-12-18T04:32:34.727Z,24.38
2022-12-18T04:35:05.152Z,35.53
2022-12-18T04:37:33.560Z,29.73
2022-12-18T04:40:03.031Z,36.40
2022-12-18T04:42:31.516Z,29.80
2022-12-18T04:44:59.986Z,35.47
2022-12-18T04:47:28.444Z,31.60
2022-12-18T04:49:57.010Z,31.20
2022-12-18T04:52:25.566Z,27.50
2022-12-18T04:54:53.982Z,26.83
2022-12-18T04:57:22.389Z,26.33
2022-12-18T04:59:50.844Z,25.60
2022-12-18T05:02:19.435Z,29.92
2022-12-18T05:04:48.111Z,26.33
2022-12-18T05:07:16.670Z,28.58
2022-12-18T05:09:45.089Z,26.40
2022-12-18T05:12:13.647Z,20.98
2022-12-18T05:14:42.180Z,23.05
2022-12-18T05:17:10.716Z,27.80
2022-12-18T05:19:39.406Z,33.47
2022-12-18T05:22:07.766Z,21.38
2022-12-18T05:24:36.407Z,26.35
2022-12-18T05:27:04.893Z,25.25
2022-12-18T05:29:33.307Z,25.65
2022-12-18T05:32:01.818Z,20.67
2022-12-18T05:34:30.290Z,38.50
2022-12-18T05:36:58.677Z,27.80
2022-12-18T05:39:27.211Z,29.73
2022-12-18T05:41:55.606Z,27.88
2022-12-18T05:44:24.072Z,28.17
2022-12-18T05:46:52.440Z,32.78
2022-12-18T05:49:20.974Z,31.45
2022-12-18T05:51:49.345Z,27.67
2022-12-18T05:54:17.966Z,26.13
2022-12-18T05:56:48.787Z,26.75
2022-12-18T05:59:17.555Z,24.05
2022-12-18T06:01:46.811Z,36.47
2022-12-18T06:04:15.593Z,25.98
2022-12-18T06:06:44.117Z,32.42
2022-12-18T06:09:12.879Z,28.33
2022-12-18T06:11:41.402Z,25.40
2022-12-18T06:14:10.809Z,33.63
2022-12-18T06:16:39.285Z,26.55
2022-12-18T06:19:07.726Z,19.48
2022-12-18T06:21:36.218Z,23.77
2022-12-18T06:24:04.994Z,22.75
2022-12-18T06:26:33.435Z,26.50
2022-12-18T06:29:01.794Z,29.80
2022-12-18T06:31:30.308Z,27.52
2022-12-18T06:33:59.298Z,28.85
2022-12-18T06:36:27.741Z,31.33
2022-12-18T06:38:58.435Z,33.38
2022-12-18T06:41:27.871Z,31.92
2022-12-18T06:43:59.707Z,26.77
2022-12-18T06:46:28.317Z,23.92
2022-12-18T06:48:56.751Z,29.33
2022-12-18T06:51:25.636Z,32.10
2022-12-18T06:53:55.054Z,29.90
2022-12-18T06:56:23.453Z,24.02
2022-12-18T06:58:51.887Z,30.45
2022-12-18T07:01:20.599Z,24.90
2022-12-18T07:03:54.557Z,35.42
2022-12-18T07:06:25.584Z,23.33
2022-12-18T07:08:55.259Z,30.88
2022-12-18T07:11:24.242Z,22.67
2022-12-18T07:13:53.400Z,24.35
2022-12-18T07:16:25.381Z,28.38
2022-12-18T07:18:56.461Z,22.48
2022-12-18T07:21:26.174Z,28.80
2022-12-18T07:23:54.895Z,26.65
2022-12-18T07:26:24.557Z,27.80
2022-12-18T07:28:56.565Z,27.95
2022-12-18T07:31:25.561Z,31.02
2022-12-18T07:33:54.233Z,38.50
2022-12-18T07:36:22.626Z,28.83
2022-12-18T07:38:52.925Z,28.30
2022-12-18T07:41:26.462Z,24.40
2022-12-18T07:43:54.905Z,30.42
2022-12-18T07:46:23.810Z,30.30
2022-12-18T07:48:52.222Z,25.50
2022-12-18T07:51:20.695Z,32.97
2022-12-18T07:53:52.472Z,35.65
2022-12-18T07:56:30.327Z,29.27
2022-12-18T07:59:00.952Z,32.15
2022-12-18T08:01:29.561Z,25.23
2022-12-18T08:03:59.581Z,33.67
2022-12-18T08:06:28.029Z,23.20
2022-12-18T08:08:57.062Z,23.63
2022-12-18T08:11:28.560Z,31.13
2022-12-18T08:13:58.391Z,26.58
2022-12-18T08:16:27.227Z,28.30
2022-12-18T08:18:57.140Z,37.17
2022-12-18T08:21:30.548Z,30.52
2022-12-18T08:24:01.814Z,36.08
2022-12-18T08:26:32.518Z,34.70
2022-12-18T08:29:01.818Z,28.92
2022-12-18T08:31:32.132Z,30.38
2022-12-18T08:34:00.828Z,24.17
2022-12-18T08:36:29.486Z,34.15
2022-12-18T08:38:58.119Z,34.90
2022-12-18T08:41:27.492Z,28.83
2022-12-18T08:44:14.706Z,41.20
2022-12-18T08:46:44.414Z,26.08
2022-12-18T08:49:12.968Z,34.55
2022-12-18T08:51:42.473Z,43.17
2022-12-18T08:54:14.571Z,32.25
2022-12-18T08:56:43.060Z,36.60
2022-12-18T08:59:17.572Z,33.83
2022-12-18T09:01:48.958Z,30.15
2022-12-18T09:04:17.857Z,42.85
2022-12-18T09:06:46.633Z,34.55
2022-12-18T09:09:15.315Z,40.25
2022-12-18T09:11:45.843Z,43.67
2022-12-18T09:14:14.613Z,33.42
2022-12-18T09:16:43.398Z,32.35
2022-12-18T09:19:12.179Z,29.00
2022-12-18T09:21:44.796Z,27.42
2022-12-18T09:24:17.503Z,30.00
2022-12-18T09:26:47.319Z,32.58
2022-12-18T09:29:17.720Z,36.30
2022-12-18T09:31:48.102Z,28.15
2022-12-18T09:34:17.691Z,30.50
2022-12-18T09:36:46.426Z,33.58
2022-12-18T09:39:16.020Z,33.25
2022-12-18T09:41:56.771Z,34.30
2022-12-18T09:44:32.487Z,30.27
2022-12-18T09:47:13.500Z,44.13
2022-12-18T09:49:50.303Z,31.77
2022-12-18T09:52:31.481Z,41.17
2022-12-18T09:55:06.323Z,31.30
2022-12-18T09:57:41.871Z,31.65
2022-12-18T10:00:20.609Z,29.90
2022-12-18T10:02:51.790Z,38.53
2022-12-18T10:05:31.817Z,32.28
2022-12-18T10:08:08.802Z,37.72
2022-12-18T10:11:04.289Z,26.08
2022-12-18T10:13:46.996Z,34.85
2022-12-18T10:16:27.317Z,28.88
2022-12-18T10:19:11.186Z,30.05
2022-12-18T10:21:50.462Z,38.40
2022-12-18T10:24:33.518Z,28.42
2022-12-18T10:27:18.963Z,34.50
2022-12-18T10:29:47.738Z,34.75
2022-12-18T10:32:22.786Z,35.95
2022-12-18T10:35:00.172Z,27.20
2022-12-18T10:37:30.963Z,43.58
2022-12-18T10:40:18.238Z,33.03
2022-12-18T10:43:14.488Z,23.13
2022-12-18T10:45:58.279Z,38.90
2022-12-18T10:48:27.810Z,31.77
2022-12-18T10:51:12.959Z,27.45
2022-12-18T10:53:43.624Z,24.23
2022-12-18T10:56:12.751Z,24.77
2022-12-18T10:58:41.554Z,27.00
2022-12-18T11:01:21.260Z,37.47
2022-12-18T11:04:01.671Z,31.00
2022-12-18T11:06:30.860Z,33.88
2022-12-18T11:09:19.689Z,31.30
2022-12-18T11:11:54.364Z,36.65
2022-12-18T11:14:26.003Z,25.60
2022-12-18T11:17:24.733Z,27.27
2022-12-18T11:19:45.039Z,36.33
2022-12-18T11:22:28.964Z,29.48
2022-12-18T11:25:32.152Z,34.60
2022-12-18T11:28:00.566Z,32.50
2022-12-18T11:30:34.821Z,24.95
2022-12-18T11:33:21.813Z,47.63
2022-12-18T11:36:00.901Z,35.15
2022-12-18T11:38:39.084Z,36.80
2022-12-18T11:41:57.536Z,25.83
2022-12-18T11:44:46.547Z,28.02
2022-12-18T11:47:40.140Z,29.80
2022-12-18T11:50:18.507Z,27.10
2022-12-18T11:52:48.501Z,29.27
2022-12-18T11:55:35.075Z,29.27
2022-12-18T11:58:31.139Z,34.30
2022-12-18T12:01:17.573Z,23.63
2022-12-18T12:03:49.684Z,27.23
2022-12-18T12:06:40.094Z,31.92
2022-12-18T12:09:16.630Z,31.30
2022-12-18T12:12:15.387Z,26.40
2022-12-18T12:14:43.824Z,30.75
2022-12-18T12:17:27.435Z,29.60
2022-12-18T12:20:18.006Z,29.17
2022-12-18T12:23:00.260Z,34.38
2022-12-18T12:26:05.195Z,39.65
2022-12-18T12:28:36.753Z,30.45
2022-12-18T12:31:47.690Z,29.83
2022-12-18T12:34:42.567Z,34.38
2022-12-18T12:37:33.748Z,33.63
2022-12-18T12:40:15.361Z,32.50
2022-12-18T12:43:14.361Z,27.10
2022-12-18T12:45:54.893Z,32.92
2022-12-18T12:48:26.193Z,34.42
2022-12-18T12:50:56.081Z,25.13
2022-12-18T12:53:29.911Z,34.50
2022-12-18T12:55:58.967Z,29.33
2022-12-18T12:58:46.337Z,31.20
2022-12-18T13:01:42.034Z,38.08
2022-12-18T13:04:37.392Z,36.70
2022-12-18T13:07:17.415Z,34.85
2022-12-18T13:10:13.200Z,30.55
2022-12-18T13:12:56.805Z,33.58
2022-12-18T13:15:55.693Z,30.30
2022-12-18T13:18:26.326Z,33.00
2022-12-18T13:20:58.488Z,75.82
2022-12-18T13:23:37.386Z,66.03
2022-12-18T13:26:11.951Z,26.35
2022-12-18T13:28:46.927Z,48.92
2022-12-18T13:31:41.967Z,41.85
2022-12-18T13:34:28.294Z,74.60
2022-12-18T13:37:32.839Z,31.95
2022-12-18T13:40:01.355Z,24.75
2022-12-18T13:42:59.815Z,24.00
2022-12-18T13:45:47.575Z,78.50
2022-12-18T13:48:25.119Z,26.38
2022-12-18T13:51:01.292Z,34.08
2022-12-18T13:53:52.822Z,34.47
2022-12-18T13:56:30.962Z,46.53
2022-12-18T13:59:24.899Z,27.92
2022-12-18T14:02:06.331Z,35.10
2022-12-18T14:04:36.911Z,58.03
2022-12-18T14:07:11.536Z,34.47
2022-12-18T14:09:49.870Z,41.80
2022-12-18T14:12:57.692Z,35.40
2022-12-18T14:15:56.656Z,32.28
2022-12-18T14:18:40.105Z,29.92
2022-12-18T14:21:30.677Z,29.63
2022-12-18T14:24:14.719Z,30.58
2022-12-18T14:26:44.329Z,27.52
2022-12-18T14:29:31.019Z,23.20
2022-12-18T14:32:17.747Z,35.17
2022-12-18T14:34:55.049Z,32.00
2022-12-18T14:37:28.314Z,33.85
2022-12-18T14:39:59.793Z,25.13
2022-12-18T14:45:41.793Z,36.55
2022-12-18T14:48:39.777Z,42.53
2022-12-18T14:51:11.254Z,43.92
2022-12-18T14:53:54.148Z,70.53
2022-12-18T14:56:30.106Z,64.40
2022-12-18T14:59:15.173Z,32.60
2022-12-18T15:01:51.525Z,84.10
2022-12-18T15:04:41.709Z,48.20
2022-12-18T15:07:17.794Z,43.17
2022-12-18T15:10:17.793Z,84.80
2022-12-18T15:13:07.040Z,37.50
2022-12-18T15:15:38.544Z,50.92
2022-12-18T15:18:11.458Z,53.45
2022-12-18T15:20:54.356Z,38.03
2022-12-18T15:23:23.004Z,35.70
2022-12-18T15:26:06.909Z,39.72
2022-12-18T15:28:44.126Z,39.80
2022-12-18T15:31:13.089Z,24.15
2022-12-18T15:34:00.559Z,31.48
2022-12-18T15:36:30.415Z,43.47
2022-12-18T15:39:04.671Z,28.85
2022-12-18T15:41:37.108Z,27.80
2022-12-18T15:44:23.861Z,91.20
2022-12-18T15:46:52.232Z,39.05
2022-12-18T15:49:20.768Z,22.70
2022-12-18T15:51:54.188Z,28.38
2022-12-18T15:54:42.792Z,24.23
2022-12-18T15:57:24.097Z,34.28
2022-12-18T15:59:54.156Z,28.27
2022-12-18T16:02:23.935Z,29.33
2022-12-18T16:04:53.324Z,35.80
2022-12-18T16:07:25.122Z,34.28
2022-12-18T16:09:55.186Z,35.85
2022-12-18T16:12:26.484Z,29.33
2022-12-18T16:14:54.930Z,44.60
2022-12-18T16:17:23.405Z,32.25
2022-12-18T16:19:51.811Z,37.72
2022-12-18T16:22:25.871Z,38.15
2022-12-18T16:24:55.511Z,38.10
2022-12-18T16:27:25.091Z,38.33
2022-12-18T16:29:53.506Z,42.97
2022-12-18T16:32:23.405Z,31.13
2022-12-18T16:34:52.063Z,39.38
2022-12-18T16:37:20.524Z,53.08
2022-12-18T16:39:48.982Z,47.58
2022-12-18T16:42:20.108Z,48.95
2022-12-18T16:44:50.184Z,39.40
2022-12-18T16:47:19.088Z,40.83
2022-12-18T16:49:49.064Z,35.30
2022-12-18T16:52:18.709Z,41.03
2022-12-18T16:54:47.335Z,47.97
2022-12-18T16:57:19.058Z,37.25
2022-12-18T16:59:47.791Z,35.70
2022-12-18T17:02:22.830Z,35.90
2022-12-18T17:04:57.415Z,36.72
2022-12-18T17:07:26.962Z,36.03
2022-12-18T17:09:56.388Z,36.20
2022-12-18T17:12:25.079Z,45.90
2022-12-18T17:14:53.578Z,53.22
2022-12-18T17:17:23.286Z,48.70
2022-12-18T17:19:52.810Z,32.85
2022-12-18T17:22:23.173Z,39.75
2022-12-18T17:24:51.804Z,34.67
2022-12-18T17:27:20.240Z,39.13
2022-12-18T17:29:49.234Z,87.45
2022-12-18T17:32:18.269Z,60.38
2022-12-18T17:34:48.051Z,81.28
2022-12-18T17:37:16.480Z,43.92
2022-12-18T17:39:44.979Z,57.85
2022-12-18T17:42:15.736Z,31.88
2022-12-18T17:44:44.948Z,31.25
2022-12-18T17:47:14.134Z,34.95
2022-12-18T17:49:42.758Z,29.92
2022-12-18T17:52:11.407Z,40.67
2022-12-18T17:54:41.929Z,31.98
2022-12-18T17:57:10.528Z,33.90
2022-12-18T17:59:38.944Z,29.13
2022-12-18T18:02:11.334Z,52.17
2022-12-18T18:04:40.770Z,59.67
2022-12-18T18:07:10.292Z,31.58
2022-12-18T18:09:38.755Z,34.25
2022-12-18T18:12:25.628Z,42.13
2022-12-18T18:14:54.425Z,41.30
2022-12-18T18:17:23.216Z,38.42
2022-12-18T18:19:51.569Z,34.00
2022-12-18T18:22:20.072Z,33.70
2022-12-18T18:24:48.761Z,39.50
2022-12-18T18:27:17.273Z,37.55
2022-12-18T18:29:45.818Z,42.55
2022-12-18T18:32:14.240Z,33.05
2022-12-18T18:34:42.744Z,38.17
2022-12-18T18:37:12.057Z,37.28
2022-12-18T18:39:40.597Z,32.90
2022-12-18T18:42:09.107Z,37.47
2022-12-18T18:44:37.472Z,33.25
2022-12-18T18:47:09.409Z,45.78
2022-12-18T18:49:38.294Z,38.30
2022-12-18T18:52:07.395Z,37.88
2022-12-18T18:54:35.818Z,34.95
2022-12-18T18:57:20.241Z,54.33
2022-12-18T18:59:49.506Z,45.53
2022-12-18T19:02:18.163Z,55.67
2022-12-18T19:04:47.127Z,51.35
2022-12-18T19:07:29.346Z,26.13
2022-12-18T19:10:04.092Z,32.00
2022-12-18T19:12:53.697Z,34.75
2022-12-18T19:15:22.288Z,35.33
2022-12-18T19:17:50.993Z,37.10
2022-12-18T19:20:19.655Z,42.88
2022-12-18T19:22:55.340Z,38.75
2022-12-18T19:25:38.412Z,33.90
2022-12-18T19:28:13.246Z,30.30
2022-12-18T19:30:58.975Z,36.78
2022-12-18T19:33:45.202Z,57.63
2022-12-18T19:36:22.930Z,40.90
2022-12-18T19:38:54.263Z,54.53
2022-12-18T19:41:23.958Z,112.38
2022-12-18T19:43:54.142Z,48.25
2022-12-18T19:46:23.764Z,40.25
2022-12-18T19:48:52.417Z,35.35
2022-12-18T19:51:24.679Z,30.80
2022-12-18T19:56:32.548Z,42.55
2022-12-18T19:59:02.767Z,49.67
2022-12-18T20:01:31.487Z,43.65
2022-12-18T20:04:01.132Z,31.67
2022-12-18T20:06:55.558Z,35.28
2022-12-18T20:09:24.111Z,34.60
2022-12-18T20:11:53.528Z,35.97
2022-12-18T20:14:23.045Z,45.25
2022-12-18T20:16:52.542Z,40.50
2022-12-18T20:19:22.324Z,56.83
2022-12-18T20:21:51.148Z,67.22
2022-12-18T20:24:19.629Z,38.47
2022-12-18T20:26:48.037Z,37.15
2022-12-18T20:29:16.441Z,37.60
2022-12-18T20:31:44.891Z,40.75
2022-12-18T20:34:13.461Z,34.65
2022-12-18T20:36:42.308Z,45.40
2022-12-18T20:39:13.301Z,41.45
2022-12-18T20:41:41.939Z,40.97
2022-12-18T20:44:23.112Z,44.65
2022-12-18T20:46:57.882Z,39.63
2022-12-18T20:49:27.538Z,44.67
2022-12-18T20:51:57.858Z,44.17
2022-12-18T20:54:27.609Z,34.20
2022-12-18T20:56:56.791Z,66.13
2022-12-18T20:59:25.765Z,50.67
2022-12-18T21:01:54.876Z,47.00
2022-12-18T21:04:23.981Z,76.13
2022-12-18T21:06:59.142Z,42.08
2022-12-18T21:09:37.739Z,73.75
2022-12-18T21:12:34.895Z,83.90
2022-12-18T21:15:13.090Z,54.13
2022-12-18T21:17:44.411Z,43.20
2022-12-18T21:20:18.146Z,36.80
2022-12-18T21:22:49.187Z,48.40
2022-12-18T21:25:17.907Z,45.05
2022-12-18T21:27:46.293Z,48.58
2022-12-18T21:30:15.061Z,41.75
2022-12-18T21:32:43.644Z,41.55
2022-12-18T21:35:12.234Z,47.38
2022-12-18T21:37:40.663Z,58.15
2022-12-18T21:40:09.502Z,43.40
2022-12-18T21:42:56.575Z,55.58
2022-12-18T21:45:24.923Z,42.22
2022-12-18T21:47:53.315Z,50.95
2022-12-18T21:50:21.735Z,50.38
2022-12-18T21:52:50.153Z,38.08
2022-12-18T21:55:18.628Z,49.38
2022-12-18T21:57:47.040Z,75.53
2022-12-18T22:00:18.371Z,50.95
2022-12-18T22:03:05.647Z,71.15
2022-12-18T22:05:37.235Z,84.00
2022-12-18T22:08:06.859Z,56.70
2022-12-18T22:10:36.502Z,74.93
2022-12-18T22:13:06.729Z,82.10
2022-12-18T22:15:35.238Z,119.75
2022-12-18T22:18:03.798Z,88.47
2022-12-18T22:20:32.361Z,61.58
2022-12-18T22:23:05.721Z,58.80
2022-12-18T22:25:36.273Z,38.38
2022-12-18T22:28:26.821Z,56.03
2022-12-18T22:30:59.142Z,58.00
2022-12-18T22:33:28.368Z,58.92
2022-12-18T22:35:56.783Z,50.92
2022-12-18T22:38:25.340Z,46.05
2022-12-18T22:40:54.739Z,37.08
2022-12-18T22:43:23.287Z,37.22
2022-12-18T22:45:51.664Z,39.13
2022-12-18T22:48:20.393Z,36.78
2022-12-18T22:50:49.561Z,44.40
2022-12-18T22:53:19.329Z,51.00
2022-12-18T22:55:47.769Z,40.22
2022-12-18T22:58:16.154Z,40.55
2022-12-18T23:00:44.624Z,41.75
2022-12-18T23:03:13.209Z,46.47
2022-12-18T23:05:41.702Z,60.08
2022-12-18T23:08:10.165Z,33.10
2022-12-18T23:10:39.381Z,43.10
2022-12-18T23:13:07.797Z,44.28
2022-12-18T23:15:41.972Z,39.42
2022-12-18T23:18:10.379Z,36.63
2022-12-18T23:20:38.877Z,30.35
2022-12-18T23:23:08.687Z,43.40
2022-12-18T23:25:37.394Z,39.60
2022-12-18T23:28:06.357Z,49.10
2022-12-18T23:30:35.090Z,36.13
2022-12-18T23:33:03.583Z,36.08
2022-12-18T23:35:32.058Z,50.90
2022-12-18T23:38:00.874Z,50.30
2022-12-18T23:40:29.923Z,44.05
2022-12-18T23:42:59.129Z,48.25
2022-12-18T23:45:27.546Z,51.33
2022-12-18T23:47:56.111Z,33.03
2022-12-18T23:50:29.438Z,42.65
2022-12-18T23:53:04.878Z,43.35
2022-12-18T23:55:39.682Z,41.67
2022-12-18T23:58:19.367Z,44.00
